sensor_id;sensor_type;location;lat;lon;timestamp;pressure;altitude;pressure_sealevel;temperature;humidity
61506;BME280;47366;51.916;4.574;2024-01-06T00:01:45;100566.47;;;7.06;100.00
61506;BME280;47366;51.916;4.574;2024-01-06T00:04:11;100581.72;;;7.05;100.00
61506;BME280;47366;51.916;4.574;2024-01-06T00:06:36;100571.28;;;6.99;100.00
61506;BME280;47366;51.916;4.574;2024-01-06T00:09:01;100573.88;;;7.00;100.00
61506;BME280;47366;51.916;4.574;2024-01-06T00:11:27;100582.63;;;7.06;100.00
61506;BME280;47366;51.916;4.574;2024-01-06T00:13:52;100582.06;;;6.99;100.00
61506;BME280;47366;51.916;4.574;2024-01-06T00:16:18;100579.66;;;6.93;100.00
61506;BME280;47366;51.916;4.574;2024-01-06T00:18:44;100583.56;;;6.87;100.00
61506;BME280;47366;51.916;4.574;2024-01-06T00:21:10;100600.56;;;6.88;100.00
61506;BME280;47366;51.916;4.574;2024-01-06T00:23:35;100596.38;;;6.82;100.00
61506;BME280;47366;51.916;4.574;2024-01-06T00:26:00;100602.06;;;6.76;100.00
61506;BME280;47366;51.916;4.574;2024-01-06T00:28:26;100597.69;;;6.73;100.00
61506;BME280;47366;51.916;4.574;2024-01-06T00:30:51;100598.00;;;6.67;100.00
61506;BME280;47366;51.916;4.574;2024-01-06T00:33:16;100610.53;;;6.68;100.00
61506;BME280;47366;51.916;4.574;2024-01-06T00:35:42;100598.56;;;6.74;100.00
61506;BME280;47366;51.916;4.574;2024-01-06T00:38:07;100601.19;;;6.75;100.00
61506;BME280;47366;51.916;4.574;2024-01-06T00:40:32;100603.81;;;6.77;100.00
61506;BME280;47366;51.916;4.574;2024-01-06T00:42:58;100598.00;;;6.67;100.00
61506;BME280;47366;51.916;4.574;2024-01-06T00:45:24;100595.56;;;6.63;100.00
61506;BME280;47366;51.916;4.574;2024-01-06T00:47:49;100608.13;;;6.62;100.00
61506;BME280;47366;51.916;4.574;2024-01-06T00:50:14;100627.06;;;6.61;100.00
61506;BME280;47366;51.916;4.574;2024-01-06T00:52:41;100623.72;;;6.55;100.00
61506;BME280;47366;51.916;4.574;2024-01-06T00:55:07;100629.31;;;6.51;100.00
61506;BME280;47366;51.916;4.574;2024-01-06T00:57:32;100628.41;;;6.50;100.00
61506;BME280;47366;51.916;4.574;2024-01-06T00:59:58;100613.63;;;6.42;100.00
61506;BME280;47366;51.916;4.574;2024-01-06T01:02:23;100632.78;;;6.53;100.00
61506;BME280;47366;51.916;4.574;2024-01-06T01:04:48;100625.19;;;6.44;100.00
61506;BME280;47366;51.916;4.574;2024-01-06T01:07:14;100626.84;;;6.46;100.00
61506;BME280;47366;51.916;4.574;2024-01-06T01:09:39;100632.00;;;6.51;100.00
61506;BME280;47366;51.916;4.574;2024-01-06T01:12:05;100639.19;;;6.50;100.00
61506;BME280;47366;51.916;4.574;2024-01-06T01:14:30;100637.28;;;6.52;100.00
61506;BME280;47366;51.916;4.574;2024-01-06T01:16:55;100653.59;;;6.49;100.00
61506;BME280;47366;51.916;4.574;2024-01-06T01:19:21;100657.31;;;6.47;100.00
61506;BME280;47366;51.916;4.574;2024-01-06T01:21:46;100667.47;;;6.40;100.00
61506;BME280;47366;51.916;4.574;2024-01-06T01:24:11;100664.16;;;6.35;100.00
61506;BME280;47366;51.916;4.574;2024-01-06T01:26:36;100669.72;;;6.30;100.00
61506;BME280;47366;51.916;4.574;2024-01-06T01:29:02;100672.28;;;6.33;100.00
61506;BME280;47366;51.916;4.574;2024-01-06T01:31:27;100674.25;;;6.30;100.00
61506;BME280;47366;51.916;4.574;2024-01-06T01:33:52;100670.53;;;6.32;100.00
61506;BME280;47366;51.916;4.574;2024-01-06T01:36:18;100678.75;;;6.29;100.00
61506;BME280;47366;51.916;4.574;2024-01-06T01:38:43;100682.38;;;6.28;100.00
61506;BME280;47366;51.916;4.574;2024-01-06T01:41:09;100689.44;;;6.31;100.00
61506;BME280;47366;51.916;4.574;2024-01-06T01:43:34;100687.69;;;6.30;100.00
61506;BME280;47366;51.916;4.574;2024-01-06T01:45:59;100693.56;;;6.38;100.00
61506;BME280;47366;51.916;4.574;2024-01-06T01:48:25;100692.50;;;6.42;100.00
61506;BME280;47366;51.916;4.574;2024-01-06T01:50:51;100692.97;;;6.31;100.00
61506;BME280;47366;51.916;4.574;2024-01-06T01:53:17;100696.47;;;6.33;100.00
61506;BME280;47366;51.916;4.574;2024-01-06T01:55:43;100689.44;;;6.31;100.00
61506;BME280;47366;51.916;4.574;2024-01-06T01:58:10;100702.06;;;6.29;100.00
61506;BME280;47366;51.916;4.574;2024-01-06T02:00:37;100698.88;;;6.21;100.00
61506;BME280;47366;51.916;4.574;2024-01-06T02:03:04;100702.28;;;6.24;100.00
61506;BME280;47366;51.916;4.574;2024-01-06T02:05:30;100706.66;;;6.27;100.00
61506;BME280;47366;51.916;4.574;2024-01-06T02:07:56;100705.94;;;6.23;100.00
61506;BME280;47366;51.916;4.574;2024-01-06T02:10:21;100707.88;;;6.20;100.00
61506;BME280;47366;51.916;4.574;2024-01-06T02:12:48;100722.00;;;6.25;100.00
61506;BME280;47366;51.916;4.574;2024-01-06T02:15:14;100713.34;;;6.18;100.00
61506;BME280;47366;51.916;4.574;2024-01-06T02:17:39;100715.06;;;6.19;100.00
61506;BME280;47366;51.916;4.574;2024-01-06T02:20:06;100718.72;;;6.18;100.00
61506;BME280;47366;51.916;4.574;2024-01-06T02:22:32;100721.09;;;6.24;100.00
61506;BME280;47366;51.916;4.574;2024-01-06T02:24:58;100736.78;;;6.14;100.00
61506;BME280;47366;51.916;4.574;2024-01-06T02:27:23;100744.75;;;6.18;100.00
61506;BME280;47366;51.916;4.574;2024-01-06T02:29:49;100746.03;;;6.09;100.00
61506;BME280;47366;51.916;4.574;2024-01-06T02:32:14;100748.84;;;6.06;100.00
61506;BME280;47366;51.916;4.574;2024-01-06T02:34:39;100751.53;;;6.06;100.00
61506;BME280;47366;51.916;4.574;2024-01-06T02:37:04;100754.22;;;6.06;100.00
61506;BME280;47366;51.916;4.574;2024-01-06T02:39:30;100756.03;;;6.05;100.00
61506;BME280;47366;51.916;4.574;2024-01-06T02:41:55;100766.91;;;6.02;100.00
61506;BME280;47366;51.916;4.574;2024-01-06T02:44:21;100760.06;;;5.95;100.00
61506;BME280;47366;51.916;4.574;2024-01-06T02:46:46;100769.25;;;5.89;100.00
61506;BME280;47366;51.916;4.574;2024-01-06T02:49:11;100764.06;;;5.85;100.00
61506;BME280;47366;51.916;4.574;2024-01-06T02:51:37;100783.63;;;5.88;100.00
61506;BME280;47366;51.916;4.574;2024-01-06T02:54:02;100787.19;;;5.89;100.00
61506;BME280;47366;51.916;4.574;2024-01-06T02:56:27;100790.50;;;5.95;100.00
61506;BME280;47366;51.916;4.574;2024-01-06T02:58:53;100787.72;;;5.99;100.00
61506;BME280;47366;51.916;4.574;2024-01-06T03:01:18;100788.53;;;6.01;100.00
61506;BME280;47366;51.916;4.574;2024-01-06T03:03:43;100781.31;;;6.01;100.00
61506;BME280;47366;51.916;4.574;2024-01-06T03:06:09;100792.94;;;6.02;100.00
61506;BME280;47366;51.916;4.574;2024-01-06T03:08:34;100783.75;;;5.85;100.00
61506;BME280;47366;51.916;4.574;2024-01-06T03:11:00;100791.00;;;5.83;100.00
61506;BME280;47366;51.916;4.574;2024-01-06T03:13:25;100798.25;;;5.81;100.00
61506;BME280;47366;51.916;4.574;2024-01-06T03:15:50;100799.59;;;5.71;100.00
61506;BME280;47366;51.916;4.574;2024-01-06T03:18:16;100803.28;;;5.68;100.00
61506;BME280;47366;51.916;4.574;2024-01-06T03:20:41;100795.28;;;5.67;100.00
61506;BME280;47366;51.916;4.574;2024-01-06T03:23:06;100809.63;;;5.67;100.00
61506;BME280;47366;51.916;4.574;2024-01-06T03:25:32;100801.84;;;5.60;100.00
61506;BME280;47366;51.916;4.574;2024-01-06T03:27:57;100802.94;;;5.56;100.00
61506;BME280;47366;51.916;4.574;2024-01-06T03:30:22;100813.50;;;5.60;100.00
61506;BME280;47366;51.916;4.574;2024-01-06T03:32:48;100817.78;;;5.64;100.00
61506;BME280;47366;51.916;4.574;2024-01-06T03:35:13;100807.38;;;5.57;100.00
61506;BME280;47366;51.916;4.574;2024-01-06T03:37:39;100819.75;;;5.61;100.00
61506;BME280;47366;51.916;4.574;2024-01-06T03:40:05;100825.03;;;5.62;100.00
61506;BME280;47366;51.916;4.574;2024-01-06T03:42:31;100829.41;;;5.65;100.00
61506;BME280;47366;51.916;4.574;2024-01-06T03:44:57;100823.09;;;5.66;100.00
61506;BME280;47366;51.916;4.574;2024-01-06T03:47:22;100823.34;;;5.60;100.00
61506;BME280;47366;51.916;4.574;2024-01-06T03:49:47;100827.91;;;5.58;100.00
61506;BME280;47366;51.916;4.574;2024-01-06T03:52:13;100842.84;;;5.65;100.00
61506;BME280;47366;51.916;4.574;2024-01-06T03:54:39;100840.28;;;5.62;100.00
61506;BME280;47366;51.916;4.574;2024-01-06T03:57:04;100848.34;;;5.62;100.00
61506;BME280;47366;51.916;4.574;2024-01-06T03:59:29;100850.16;;;5.61;100.00
61506;BME280;47366;51.916;4.574;2024-01-06T04:01:54;100844.97;;;5.57;100.00
61506;BME280;47366;51.916;4.574;2024-01-06T04:04:20;100855.66;;;5.58;100.00
61506;BME280;47366;51.916;4.574;2024-01-06T04:06:45;100861.91;;;5.59;100.00
61506;BME280;47366;51.916;4.574;2024-01-06T04:09:10;100863.09;;;5.51;100.00
61506;BME280;47366;51.916;4.574;2024-01-06T04:11:36;100868.59;;;5.48;100.00
61506;BME280;47366;51.916;4.574;2024-01-06T04:14:01;100859.81;;;5.43;100.00
61506;BME280;47366;51.916;4.574;2024-01-06T04:16:26;100863.50;;;5.41;100.00
61506;BME280;47366;51.916;4.574;2024-01-06T04:18:55;100878.53;;;5.46;100.00
61506;BME280;47366;51.916;4.574;2024-01-06T04:21:20;100877.72;;;5.44;100.00
61506;BME280;47366;51.916;4.574;2024-01-06T04:23:45;100879.53;;;5.44;100.00
61506;BME280;47366;51.916;4.574;2024-01-06T04:26:11;100876.25;;;5.36;100.00
61506;BME280;47366;51.916;4.574;2024-01-06T04:28:36;100878.84;;;5.39;100.00
61506;BME280;47366;51.916;4.574;2024-01-06T04:31:01;100887.78;;;5.39;100.00
61506;BME280;47366;51.916;4.574;2024-01-06T04:33:27;100893.97;;;5.41;100.00
61506;BME280;47366;51.916;4.574;2024-01-06T04:35:52;100887.63;;;5.42;100.00
61506;BME280;47366;51.916;4.574;2024-01-06T04:38:18;100889.59;;;5.39;100.00
61506;BME280;47366;51.916;4.574;2024-01-06T04:40:43;100892.00;;;5.45;100.00
61506;BME280;47366;51.916;4.574;2024-01-06T04:43:08;100890.19;;;5.45;100.00
61506;BME280;47366;51.916;4.574;2024-01-06T04:45:34;100887.31;;;5.50;100.00
61506;BME280;47366;51.916;4.574;2024-01-06T04:47:59;100891.84;;;5.49;100.00
61506;BME280;47366;51.916;4.574;2024-01-06T04:50:25;100894.50;;;5.49;100.00
61506;BME280;47366;51.916;4.574;2024-01-06T04:52:50;100889.97;;;5.51;100.00
61506;BME280;47366;51.916;4.574;2024-01-06T04:55:15;100899.84;;;5.51;100.00
61506;BME280;47366;51.916;4.574;2024-01-06T04:57:41;100897.22;;;5.49;100.00
61506;BME280;47366;51.916;4.574;2024-01-06T05:00:06;100889.69;;;5.36;100.00
61506;BME280;47366;51.916;4.574;2024-01-06T05:02:32;100901.94;;;5.43;100.00
61506;BME280;47366;51.916;4.574;2024-01-06T05:04:58;100902.94;;;5.40;100.00
61506;BME280;47366;51.916;4.574;2024-01-06T05:07:23;100903.81;;;5.41;100.00
61506;BME280;47366;51.916;4.574;2024-01-06T05:09:48;100912.38;;;5.50;100.00
61506;BME280;47366;51.916;4.574;2024-01-06T05:12:14;100916.81;;;5.51;100.00
61506;BME280;47366;51.916;4.574;2024-01-06T05:14:39;100922.06;;;5.54;100.00
61506;BME280;47366;51.916;4.574;2024-01-06T05:17:04;100920.38;;;5.52;100.00
61506;BME280;47366;51.916;4.574;2024-01-06T05:19:30;100924.06;;;5.49;100.00
61506;BME280;47366;51.916;4.574;2024-01-06T05:21:57;100913.44;;;5.46;100.00
61506;BME280;47366;51.916;4.574;2024-01-06T05:24:22;100921.44;;;5.48;100.00
61506;BME280;47366;51.916;4.574;2024-01-06T05:26:47;100934.81;;;5.49;100.00
61506;BME280;47366;51.916;4.574;2024-01-06T05:29:13;100936.63;;;5.49;100.00
61506;BME280;47366;51.916;4.574;2024-01-06T05:31:38;100931.56;;;5.41;100.00
61506;BME280;47366;51.916;4.574;2024-01-06T05:34:03;100935.16;;;5.40;100.00
61506;BME280;47366;51.916;4.574;2024-01-06T05:36:29;100937.81;;;5.42;100.00
61506;BME280;47366;51.916;4.574;2024-01-06T05:38:55;100936.34;;;5.33;100.00
61506;BME280;47366;51.916;4.574;2024-01-06T05:41:20;100951.75;;;5.28;100.00
61506;BME280;47366;51.916;4.574;2024-01-06T05:43:45;100941.00;;;5.28;100.00
61506;BME280;47366;51.916;4.574;2024-01-06T05:46:10;100955.13;;;5.33;100.00
61506;BME280;47366;51.916;4.574;2024-01-06T05:48:36;100964.16;;;5.32;100.00
61506;BME280;47366;51.916;4.574;2024-01-06T05:51:04;100963.50;;;5.25;100.00
61506;BME280;47366;51.916;4.574;2024-01-06T05:53:30;100963.50;;;5.25;100.00
61506;BME280;47366;51.916;4.574;2024-01-06T05:55:56;100965.31;;;5.25;100.00
61506;BME280;47366;51.916;4.574;2024-01-06T05:58:21;100960.03;;;5.22;100.00
61506;BME280;47366;51.916;4.574;2024-01-06T06:00:47;100974.06;;;5.30;100.00
61506;BME280;47366;51.916;4.574;2024-01-06T06:03:12;100984.00;;;5.28;100.00
61506;BME280;47366;51.916;4.574;2024-01-06T06:05:37;100987.50;;;5.30;100.00
61506;BME280;47366;51.916;4.574;2024-01-06T06:08:03;100996.38;;;5.32;100.00
61506;BME280;47366;51.916;4.574;2024-01-06T06:10:28;100998.00;;;5.36;100.00
61506;BME280;47366;51.916;4.574;2024-01-06T06:13:05;100991.00;;;5.32;100.00
61506;BME280;47366;51.916;4.574;2024-01-06T06:15:31;101001.50;;;5.38;100.00
61506;BME280;47366;51.916;4.574;2024-01-06T06:17:57;101004.34;;;5.33;100.00
61506;BME280;47366;51.916;4.574;2024-01-06T06:20:25;101011.84;;;5.25;100.00
61506;BME280;47366;51.916;4.574;2024-01-06T06:22:50;101021.47;;;5.31;100.00
61506;BME280;47366;51.916;4.574;2024-01-06T06:25:16;101012.66;;;5.27;100.00
61506;BME280;47366;51.916;4.574;2024-01-06T06:27:41;101018.19;;;5.23;100.00
61506;BME280;47366;51.916;4.574;2024-01-06T06:30:07;101021.72;;;5.25;100.00
61506;BME280;47366;51.916;4.574;2024-01-06T06:32:33;101032.31;;;5.28;100.00
61506;BME280;47366;51.916;4.574;2024-01-06T06:34:58;101032.66;;;5.19;100.00
61506;BME280;47366;51.916;4.574;2024-01-06T06:37:24;101032.66;;;5.19;100.00
61506;BME280;47366;51.916;4.574;2024-01-06T06:39:49;101044.22;;;5.21;100.00
61506;BME280;47366;51.916;4.574;2024-01-06T06:42:14;101048.66;;;5.22;100.00
61506;BME280;47366;51.916;4.574;2024-01-06T06:44:40;101049.47;;;5.24;100.00
61506;BME280;47366;51.916;4.574;2024-01-06T06:47:05;101053.16;;;5.21;100.00
61506;BME280;47366;51.916;4.574;2024-01-06T06:49:30;101060.53;;;5.15;100.00
61506;BME280;47366;51.916;4.574;2024-01-06T06:51:56;101065.00;;;5.16;100.00
61506;BME280;47366;51.916;4.574;2024-01-06T06:54:21;101066.81;;;5.15;100.00
61506;BME280;47366;51.916;4.574;2024-01-06T06:56:46;101054.53;;;5.08;100.00
61506;BME280;47366;51.916;4.574;2024-01-06T06:59:12;101069.66;;;5.10;100.00
61506;BME280;47366;51.916;4.574;2024-01-06T07:01:37;101066.97;;;5.10;100.00
61506;BME280;47366;51.916;4.574;2024-01-06T07:04:03;101074.09;;;5.11;100.00
61506;BME280;47366;51.916;4.574;2024-01-06T07:06:29;101075.94;;;5.09;100.00
61506;BME280;47366;51.916;4.574;2024-01-06T07:08:55;101093.72;;;5.14;100.00
61506;BME280;47366;51.916;4.574;2024-01-06T07:11:20;101091.97;;;5.13;100.00
61506;BME280;47366;51.916;4.574;2024-01-06T07:13:46;101096.66;;;5.06;100.00
61506;BME280;47366;51.916;4.574;2024-01-06T07:16:11;101109.47;;;4.98;100.00
61506;BME280;47366;51.916;4.574;2024-01-06T07:18:37;101109.31;;;5.02;100.00
61506;BME280;47366;51.916;4.574;2024-01-06T07:21:04;101112.69;;;5.07;100.00
61506;BME280;47366;51.916;4.574;2024-01-06T07:23:31;101113.66;;;5.06;100.00
61506;BME280;47366;51.916;4.574;2024-01-06T07:25:57;101101.16;;;5.05;100.00
61506;BME280;47366;51.916;4.574;2024-01-06T07:28:23;101116.19;;;5.11;100.00
61506;BME280;47366;51.916;4.574;2024-01-06T07:30:48;101126.13;;;5.07;100.00
61506;BME280;47366;51.916;4.574;2024-01-06T07:33:13;101128.09;;;5.02;100.00
61506;BME280;47366;51.916;4.574;2024-01-06T07:35:39;101127.38;;;4.97;100.00
61506;BME280;47366;51.916;4.574;2024-01-06T07:38:08;101134.94;;;5.13;100.00
61506;BME280;47366;51.916;4.574;2024-01-06T07:40:35;101146.25;;;5.21;100.00
61506;BME280;47366;51.916;4.574;2024-01-06T07:43:01;101139.25;;;5.17;100.00
61506;BME280;47366;51.916;4.574;2024-01-06T07:45:27;101156.19;;;5.19;100.00
61506;BME280;47366;51.916;4.574;2024-01-06T07:47:52;101148.25;;;5.16;100.00
61506;BME280;47366;51.916;4.574;2024-01-06T07:50:18;101152.78;;;5.14;100.00
61506;BME280;47366;51.916;4.574;2024-01-06T07:52:43;101154.44;;;5.18;100.00
61506;BME280;47366;51.916;4.574;2024-01-06T07:55:08;101165.25;;;5.15;100.00
61506;BME280;47366;51.916;4.574;2024-01-06T07:57:34;101165.59;;;5.05;100.00
61506;BME280;47366;51.916;4.574;2024-01-06T07:59:59;101166.63;;;5.01;100.00
61506;BME280;47366;51.916;4.574;2024-01-06T08:02:25;101172.72;;;5.06;100.00
61506;BME280;47366;51.916;4.574;2024-01-06T08:04:51;101177.22;;;5.06;100.00
61506;BME280;47366;51.916;4.574;2024-01-06T08:07:16;101183.41;;;5.08;100.00
61506;BME280;47366;51.916;4.574;2024-01-06T08:09:41;101191.50;;;5.06;100.00
61506;BME280;47366;51.916;4.574;2024-01-06T08:12:07;101187.00;;;5.07;100.00
61506;BME280;47366;51.916;4.574;2024-01-06T08:14:33;101188.94;;;5.03;100.00
61506;BME280;47366;51.916;4.574;2024-01-06T08:16:58;101203.13;;;5.07;100.00
61506;BME280;47366;51.916;4.574;2024-01-06T08:19:24;101213.03;;;5.05;100.00
61506;BME280;47366;51.916;4.574;2024-01-06T08:21:49;101203.53;;;4.95;100.00
61506;BME280;47366;51.916;4.574;2024-01-06T08:24:14;101214.78;;;5.06;100.00
61506;BME280;47366;51.916;4.574;2024-01-06T08:26:40;101198.84;;;5.01;100.00
61506;BME280;47366;51.916;4.574;2024-01-06T08:29:05;101208.63;;;5.02;100.00
61506;BME280;47366;51.916;4.574;2024-01-06T08:31:30;101211.44;;;4.99;100.00
61506;BME280;47366;51.916;4.574;2024-01-06T08:33:56;101216.59;;;5.05;100.00
61506;BME280;47366;51.916;4.574;2024-01-06T08:36:21;101221.97;;;5.05;100.00
61506;BME280;47366;51.916;4.574;2024-01-06T08:38:47;101219.38;;;5.02;100.00
61506;BME280;47366;51.916;4.574;2024-01-06T08:41:12;101228.97;;;5.09;100.00
61506;BME280;47366;51.916;4.574;2024-01-06T08:43:37;101228.28;;;5.03;100.00
61506;BME280;47366;51.916;4.574;2024-01-06T08:46:03;101227.53;;;4.99;100.00
61506;BME280;47366;51.916;4.574;2024-01-06T08:48:28;101223.09;;;4.98;100.00
61506;BME280;47366;51.916;4.574;2024-01-06T08:50:53;101228.47;;;4.98;100.00
61506;BME280;47366;51.916;4.574;2024-01-06T08:53:19;101238.44;;;4.93;100.00
61506;BME280;47366;51.916;4.574;2024-01-06T08:55:44;101246.56;;;4.92;100.00
61506;BME280;47366;51.916;4.574;2024-01-06T08:58:09;101226.84;;;4.93;100.00
61506;BME280;47366;51.916;4.574;2024-01-06T09:00:35;101245.22;;;5.05;100.00
61506;BME280;47366;51.916;4.574;2024-01-06T09:03:00;101249.69;;;5.06;100.00
61506;BME280;47366;51.916;4.574;2024-01-06T09:05:25;101257.69;;;5.07;100.00
61506;BME280;47366;51.916;4.574;2024-01-06T09:07:52;101255.97;;;5.05;100.00
61506;BME280;47366;51.916;4.574;2024-01-06T09:10:17;101267.63;;;5.05;100.00
61506;BME280;47366;51.916;4.574;2024-01-06T09:12:43;101262.31;;;5.02;100.00
61506;BME280;47366;51.916;4.574;2024-01-06T09:15:09;101265.94;;;5.01;100.00
61506;BME280;47366;51.916;4.574;2024-01-06T09:17:34;101277.38;;;5.08;100.00
61506;BME280;47366;51.916;4.574;2024-01-06T09:20:00;101264.44;;;4.93;100.00
61506;BME280;47366;51.916;4.574;2024-01-06T09:22:25;101279.47;;;4.98;100.00
61506;BME280;47366;51.916;4.574;2024-01-06T09:24:50;101281.31;;;4.96;100.00
61506;BME280;47366;51.916;4.574;2024-01-06T09:27:16;101294.66;;;4.99;100.00
61506;BME280;47366;51.916;4.574;2024-01-06T09:29:41;101295.38;;;5.04;100.00
61506;BME280;47366;51.916;4.574;2024-01-06T09:32:06;101297.22;;;5.02;100.00
61506;BME280;47366;51.916;4.574;2024-01-06T09:34:32;101299.72;;;5.08;100.00
61506;BME280;47366;51.916;4.574;2024-01-06T09:36:57;101300.63;;;5.07;100.00
61506;BME280;47366;51.916;4.574;2024-01-06T09:39:22;101309.59;;;5.08;100.00
61506;BME280;47366;51.916;4.574;2024-01-06T09:41:48;101316.88;;;5.03;100.00
61506;BME280;47366;51.916;4.574;2024-01-06T09:44:13;101322.25;;;5.03;100.00
61506;BME280;47366;51.916;4.574;2024-01-06T09:46:38;101325.19;;;4.95;100.00
61506;BME280;47366;51.916;4.574;2024-01-06T09:49:05;101326.97;;;4.96;100.00
61506;BME280;47366;51.916;4.574;2024-01-06T09:51:31;101332.19;;;5.01;100.00
61506;BME280;47366;51.916;4.574;2024-01-06T09:54:01;101339.28;;;5.03;100.00
61506;BME280;47366;51.916;4.574;2024-01-06T09:56:27;101345.41;;;5.07;100.00
61506;BME280;47366;51.916;4.574;2024-01-06T09:58:53;101346.28;;;5.07;100.00
61506;BME280;47366;51.916;4.574;2024-01-06T10:01:19;101346.22;;;5.10;100.00
61506;BME280;47366;51.916;4.574;2024-01-06T10:03:45;101344.41;;;5.11;100.00
61506;BME280;47366;51.916;4.574;2024-01-06T10:06:14;101347.13;;;5.09;100.00
61506;BME280;47366;51.916;4.574;2024-01-06T10:08:42;101346.41;;;5.03;100.00
61506;BME280;47366;51.916;4.574;2024-01-06T10:11:08;101344.81;;;4.97;100.00
61506;BME280;47366;51.916;4.574;2024-01-06T10:13:34;101358.94;;;5.04;100.00
61506;BME280;47366;51.916;4.574;2024-01-06T10:16:00;101353.53;;;5.05;100.00
61506;BME280;47366;51.916;4.574;2024-01-06T10:18:27;101355.31;;;5.05;100.00
61506;BME280;47366;51.916;4.574;2024-01-06T10:20:55;101354.47;;;5.03;100.00
61506;BME280;47366;51.916;4.574;2024-01-06T10:23:22;101372.16;;;5.10;100.00
61506;BME280;47366;51.916;4.574;2024-01-06T10:25:51;101362.50;;;5.04;100.00
61506;BME280;47366;51.916;4.574;2024-01-06T10:28:17;101359.03;;;5.01;100.00
61506;BME280;47366;51.916;4.574;2024-01-06T10:30:42;101366.00;;;5.06;100.00
61506;BME280;47366;51.916;4.574;2024-01-06T10:33:09;101366.00;;;5.06;100.00
61506;BME280;47366;51.916;4.574;2024-01-06T10:35:36;101371.09;;;5.16;100.00
61506;BME280;47366;51.916;4.574;2024-01-06T10:38:02;101386.06;;;5.24;100.00
61506;BME280;47366;51.916;4.574;2024-01-06T10:40:28;101390.59;;;5.22;100.00
61506;BME280;47366;51.916;4.574;2024-01-06T10:42:55;101392.34;;;5.23;100.00
61506;BME280;47366;51.916;4.574;2024-01-06T10:45:23;101401.00;;;5.33;100.00
61506;BME280;47366;51.916;4.574;2024-01-06T10:47:49;101390.22;;;5.35;100.00
61506;BME280;47366;51.916;4.574;2024-01-06T10:50:17;101392.09;;;5.31;100.00
61506;BME280;47366;51.916;4.574;2024-01-06T10:52:43;101390.41;;;5.28;100.00
61506;BME280;47366;51.916;4.574;2024-01-06T10:55:09;101393.28;;;5.22;100.00
61506;BME280;47366;51.916;4.574;2024-01-06T10:57:37;101398.69;;;5.21;100.00
61506;BME280;47366;51.916;4.574;2024-01-06T11:00:03;101393.22;;;5.24;100.00
61506;BME280;47366;51.916;4.574;2024-01-06T11:02:31;101404.16;;;5.18;100.00
61506;BME280;47366;51.916;4.574;2024-01-06T11:04:57;101397.28;;;5.07;100.00
61506;BME280;47366;51.916;4.574;2024-01-06T11:07:24;101395.72;;;5.00;100.00
61506;BME280;47366;51.916;4.574;2024-01-06T11:12:16;101410.56;;;5.14;100.00
61506;BME280;47366;51.916;4.574;2024-01-06T11:14:42;101411.44;;;5.14;100.00
61506;BME280;47366;51.916;4.574;2024-01-06T11:17:07;101413.09;;;5.18;100.00
61506;BME280;47366;51.916;4.574;2024-01-06T11:24:49;101414.78;;;5.22;100.00
61506;BME280;47366;51.916;4.574;2024-01-06T11:27:24;101405.75;;;5.25;100.00
61506;BME280;47366;51.916;4.574;2024-01-06T11:29:54;101423.56;;;5.27;100.00
61506;BME280;47366;51.916;4.574;2024-01-06T11:34:53;101412.94;;;5.24;100.00
61506;BME280;47366;51.916;4.574;2024-01-06T11:37:23;101412.13;;;5.21;100.00
61506;BME280;47366;51.916;4.574;2024-01-06T11:39:50;101423.72;;;5.23;100.00
61506;BME280;47366;51.916;4.574;2024-01-06T11:42:15;101426.38;;;5.23;100.00
61506;BME280;47366;51.916;4.574;2024-01-06T11:44:43;101421.13;;;5.20;100.00
61506;BME280;47366;51.916;4.574;2024-01-06T11:47:11;101428.13;;;5.24;100.00
61506;BME280;47366;51.916;4.574;2024-01-06T11:49:37;101421.06;;;5.21;100.00
61506;BME280;47366;51.916;4.574;2024-01-06T11:52:02;101424.72;;;5.19;100.00
61506;BME280;47366;51.916;4.574;2024-01-06T11:54:28;101430.94;;;5.21;100.00
61506;BME280;47366;51.916;4.574;2024-01-06T11:56:53;101412.53;;;5.07;100.00
61506;BME280;47366;51.916;4.574;2024-01-06T11:59:20;101420.41;;;5.13;100.00
61506;BME280;47366;51.916;4.574;2024-01-06T12:01:46;101425.72;;;5.15;100.00
61506;BME280;47366;51.916;4.574;2024-01-06T12:04:15;101427.66;;;5.09;100.00
61506;BME280;47366;51.916;4.574;2024-01-06T12:06:41;101428.53;;;5.10;100.00
61506;BME280;47366;51.916;4.574;2024-01-06T12:09:08;101425.84;;;5.10;100.00
61506;BME280;47366;51.916;4.574;2024-01-06T12:11:34;101422.16;;;5.14;100.00
61506;BME280;47366;51.916;4.574;2024-01-06T12:13:59;101421.28;;;5.14;100.00
61506;BME280;47366;51.916;4.574;2024-01-06T12:16:25;101425.81;;;5.11;100.00
61506;BME280;47366;51.916;4.574;2024-01-06T12:18:55;101428.53;;;5.10;100.00
61506;BME280;47366;51.916;4.574;2024-01-06T12:21:23;101418.00;;;5.04;100.00
61506;BME280;47366;51.916;4.574;2024-01-06T12:23:48;101430.56;;;5.03;100.00
61506;BME280;47366;51.916;4.574;2024-01-06T12:26:13;101421.75;;;4.98;100.00
61506;BME280;47366;51.916;4.574;2024-01-06T12:28:39;101435.09;;;5.01;100.00
61506;BME280;47366;51.916;4.574;2024-01-06T12:31:08;101428.78;;;5.02;100.00
61506;BME280;47366;51.916;4.574;2024-01-06T12:33:34;101432.31;;;5.04;100.00
61506;BME280;47366;51.916;4.574;2024-01-06T12:36:03;101422.38;;;5.08;100.00
61506;BME280;47366;51.916;4.574;2024-01-06T12:38:29;101430.34;;;5.09;100.00
61506;BME280;47366;51.916;4.574;2024-01-06T12:40:56;101434.00;;;5.07;100.00
61506;BME280;47366;51.916;4.574;2024-01-06T12:43:21;101435.81;;;5.06;99.75
61506;BME280;47366;51.916;4.574;2024-01-06T12:45:46;101430.50;;;5.05;99.95
61506;BME280;47366;51.916;4.574;2024-01-06T12:48:12;101428.78;;;5.02;98.57
61506;BME280;47366;51.916;4.574;2024-01-06T12:50:37;101426.75;;;5.10;98.89
61506;BME280;47366;51.916;4.574;2024-01-06T12:53:03;101433.66;;;5.19;98.93